sensor_id;sensor_type;location;lat;lon;timestamp;P1;P2;P0
44871;PMS7003;30602;51.060;17.226;2022-11-15T00:01:27;84;64;38
44871;PMS7003;30602;51.060;17.226;2022-11-15T00:05:15;88;63;36
44871;PMS7003;30602;51.060;17.226;2022-11-15T00:08:43;81;61;36
44871;PMS7003;30602;51.060;17.226;2022-11-15T00:12:13;81;61;37
44871;PMS7003;30602;51.060;17.226;2022-11-15T00:16:41;87;66;38
44871;PMS7003;30602;51.060;17.226;2022-11-15T00:20:18;76;61;37
44871;PMS7003;30602;51.060;17.226;2022-11-15T00:23:44;85;64;38
44871;PMS7003;30602;51.060;17.226;2022-11-15T00:26:59;93;67;40
44871;PMS7003;30602;51.060;17.226;2022-11-15T00:30:29;91;68;40
44871;PMS7003;30602;51.060;17.226;2022-11-15T00:34:06;86;67;41
44871;PMS7003;30602;51.060;17.226;2022-11-15T00:37:52;85;65;39
44871;PMS7003;30602;51.060;17.226;2022-11-15T00:41:33;80;63;36
44871;PMS7003;30602;51.060;17.226;2022-11-15T00:45:09;71;59;37
44871;PMS7003;30602;51.060;17.226;2022-11-15T00:49:30;85;63;37
44871;PMS7003;30602;51.060;17.226;2022-11-15T00:53:06;82;63;37
44871;PMS7003;30602;51.060;17.226;2022-11-15T00:57:06;78;61;38
44871;PMS7003;30602;51.060;17.226;2022-11-15T01:00:40;80;60;35
44871;PMS7003;30602;51.060;17.226;2022-11-15T01:03:58;79;59;34
44871;PMS7003;30602;51.060;17.226;2022-11-15T01:07:21;80;61;35
44871;PMS7003;30602;51.060;17.226;2022-11-15T01:11:06;77;60;36
44871;PMS7003;30602;51.060;17.226;2022-11-15T01:14:49;72;57;36
44871;PMS7003;30602;51.060;17.226;2022-11-15T01:18:50;82;60;36
44871;PMS7003;30602;51.060;17.226;2022-11-15T01:22:36;82;62;38
44871;PMS7003;30602;51.060;17.226;2022-11-15T01:26:40;78;59;37
44871;PMS7003;30602;51.060;17.226;2022-11-15T01:29:54;78;58;33
44871;PMS7003;30602;51.060;17.226;2022-11-15T01:34:00;80;62;35
44871;PMS7003;30602;51.060;17.226;2022-11-15T01:38:09;83;61;37
44871;PMS7003;30602;51.060;17.226;2022-11-15T01:42:46;83;62;38
44871;PMS7003;30602;51.060;17.226;2022-11-15T01:46:38;87;65;39
44871;PMS7003;30602;51.060;17.226;2022-11-15T01:50:14;75;58;35
44871;PMS7003;30602;51.060;17.226;2022-11-15T01:58:35;77;60;36
44871;PMS7003;30602;51.060;17.226;2022-11-15T02:01:53;81;61;35
44871;PMS7003;30602;51.060;17.226;2022-11-15T02:05:22;69;54;33
44871;PMS7003;30602;51.060;17.226;2022-11-15T02:08:40;71;55;32
44871;PMS7003;30602;51.060;17.226;2022-11-15T02:12:34;65;45;24
44871;PMS7003;30602;51.060;17.226;2022-11-15T02:30:42;75;56;35
44871;PMS7003;30602;51.060;17.226;2022-11-15T02:35:16;79;57;33
44871;PMS7003;30602;51.060;17.226;2022-11-15T02:39:06;79;61;36
44871;PMS7003;30602;51.060;17.226;2022-11-15T02:42:26;78;57;33
44871;PMS7003;30602;51.060;17.226;2022-11-15T02:46:50;77;57;34
44871;PMS7003;30602;51.060;17.226;2022-11-15T02:50:27;72;55;33
44871;PMS7003;30602;51.060;17.226;2022-11-15T02:54:07;67;50;30
44871;PMS7003;30602;51.060;17.226;2022-11-15T02:58:09;71;56;33
44871;PMS7003;30602;51.060;17.226;2022-11-15T03:14:45;73;57;35
44871;PMS7003;30602;51.060;17.226;2022-11-15T03:22:15;66;54;32
44871;PMS7003;30602;51.060;17.226;2022-11-15T03:25:31;70;53;33
44871;PMS7003;30602;51.060;17.226;2022-11-15T03:28:53;73;56;32
44871;PMS7003;30602;51.060;17.226;2022-11-15T03:32:54;78;59;36
44871;PMS7003;30602;51.060;17.226;2022-11-15T03:36:51;64;48;31
44871;PMS7003;30602;51.060;17.226;2022-11-15T03:40:42;67;51;32
44871;PMS7003;30602;51.060;17.226;2022-11-15T03:52:21;62;49;27
44871;PMS7003;30602;51.060;17.226;2022-11-15T03:55:39;67;52;30
44871;PMS7003;30602;51.060;17.226;2022-11-15T03:59:22;71;55;33
44871;PMS7003;30602;51.060;17.226;2022-11-15T04:02:28;56;44;27
44871;PMS7003;30602;51.060;17.226;2022-11-15T04:06:34;67;53;31
44871;PMS7003;30602;51.060;17.226;2022-11-15T04:09:54;70;53;31
44871;PMS7003;30602;51.060;17.226;2022-11-15T04:13:54;71;53;33
44871;PMS7003;30602;51.060;17.226;2022-11-15T04:17:12;71;55;31
44871;PMS7003;30602;51.060;17.226;2022-11-15T04:20:48;66;53;31
44871;PMS7003;30602;51.060;17.226;2022-11-15T04:25:04;75;55;33
44871;PMS7003;30602;51.060;17.226;2022-11-15T04:28:27;66;52;32
44871;PMS7003;30602;51.060;17.226;2022-11-15T04:32:06;70;52;32
44871;PMS7003;30602;51.060;17.226;2022-11-15T04:35:40;62;51;31
44871;PMS7003;30602;51.060;17.226;2022-11-15T04:39:00;67;52;32
44871;PMS7003;30602;51.060;17.226;2022-11-15T04:43:44;79;59;34
44871;PMS7003;30602;51.060;17.226;2022-11-15T04:47:55;72;55;33
44871;PMS7003;30602;51.060;17.226;2022-11-15T04:51:35;73;55;32
44871;PMS7003;30602;51.060;17.226;2022-11-15T04:54:52;49;42;25
44871;PMS7003;30602;51.060;17.226;2022-11-15T04:58:49;66;49;30
44871;PMS7003;30602;51.060;17.226;2022-11-15T05:01:57;65;51;32
44871;PMS7003;30602;51.060;17.226;2022-11-15T05:05:09;63;50;31
44871;PMS7003;30602;51.060;17.226;2022-11-15T05:09:21;71;53;31
44871;PMS7003;30602;51.060;17.226;2022-11-15T05:13:05;64;48;27
44871;PMS7003;30602;51.060;17.226;2022-11-15T05:16:48;68;53;31
44871;PMS7003;30602;51.060;17.226;2022-11-15T05:19:56;71;51;31
44871;PMS7003;30602;51.060;17.226;2022-11-15T05:23:35;64;51;31
44871;PMS7003;30602;51.060;17.226;2022-11-15T05:27:05;67;52;32
44871;PMS7003;30602;51.060;17.226;2022-11-15T05:31:10;70;54;33
44871;PMS7003;30602;51.060;17.226;2022-11-15T05:34:47;63;49;30
44871;PMS7003;30602;51.060;17.226;2022-11-15T05:38:04;64;51;30
44871;PMS7003;30602;51.060;17.226;2022-11-15T05:41:55;58;51;32
44871;PMS7003;30602;51.060;17.226;2022-11-15T05:46:15;68;53;33
44871;PMS7003;30602;51.060;17.226;2022-11-15T05:49:31;68;53;31
44871;PMS7003;30602;51.060;17.226;2022-11-15T05:52:58;62;51;31
44871;PMS7003;30602;51.060;17.226;2022-11-15T05:56:28;68;51;30
44871;PMS7003;30602;51.060;17.226;2022-11-15T06:00:51;72;55;33
44871;PMS7003;30602;51.060;17.226;2022-11-15T06:04:14;66;51;32
44871;PMS7003;30602;51.060;17.226;2022-11-15T06:08:15;71;52;31
44871;PMS7003;30602;51.060;17.226;2022-11-15T06:11:27;52;44;30
44871;PMS7003;30602;51.060;17.226;2022-11-15T06:14:40;65;52;31
44871;PMS7003;30602;51.060;17.226;2022-11-15T06:18:43;61;48;29
44871;PMS7003;30602;51.060;17.226;2022-11-15T06:22:29;61;49;30
44871;PMS7003;30602;51.060;17.226;2022-11-15T06:26:00;66;52;31
44871;PMS7003;30602;51.060;17.226;2022-11-15T06:30:03;63;47;31
44871;PMS7003;30602;51.060;17.226;2022-11-15T06:33:18;64;49;31
44871;PMS7003;30602;51.060;17.226;2022-11-15T06:36:47;60;46;30
44871;PMS7003;30602;51.060;17.226;2022-11-15T06:39:58;69;52;31
44871;PMS7003;30602;51.060;17.226;2022-11-15T06:44:02;67;54;32
44871;PMS7003;30602;51.060;17.226;2022-11-15T06:47:19;68;52;31
44871;PMS7003;30602;51.060;17.226;2022-11-15T06:51:37;78;60;36
44871;PMS7003;30602;51.060;17.226;2022-11-15T06:55:30;66;52;32
44871;PMS7003;30602;51.060;17.226;2022-11-15T06:59:31;70;53;33
44871;PMS7003;30602;51.060;17.226;2022-11-15T07:02:47;65;52;33
44871;PMS7003;30602;51.060;17.226;2022-11-15T07:05:59;70;52;32
44871;PMS7003;30602;51.060;17.226;2022-11-15T07:09:59;69;52;32
44871;PMS7003;30602;51.060;17.226;2022-11-15T07:14:07;73;57;34
44871;PMS7003;30602;51.060;17.226;2022-11-15T07:17:55;80;60;35
44871;PMS7003;30602;51.060;17.226;2022-11-15T07:21:30;71;55;34
44871;PMS7003;30602;51.060;17.226;2022-11-15T07:25:03;68;51;34
44871;PMS7003;30602;51.060;17.226;2022-11-15T07:28:13;70;57;35
44871;PMS7003;30602;51.060;17.226;2022-11-15T07:31:21;71;53;32
44871;PMS7003;30602;51.060;17.226;2022-11-15T07:34:58;86;68;42
44871;PMS7003;30602;51.060;17.226;2022-11-15T07:38:39;95;72;44
44871;PMS7003;30602;51.060;17.226;2022-11-15T07:41:57;90;66;40
44871;PMS7003;30602;51.060;17.226;2022-11-15T07:45:50;92;70;42
44871;PMS7003;30602;51.060;17.226;2022-11-15T07:50:01;93;71;44
44871;PMS7003;30602;51.060;17.226;2022-11-15T07:57:21;79;60;37
44871;PMS7003;30602;51.060;17.226;2022-11-15T08:01:02;86;64;37
44871;PMS7003;30602;51.060;17.226;2022-11-15T08:04:35;75;61;38
44871;PMS7003;30602;51.060;17.226;2022-11-15T08:08:11;82;64;38
44871;PMS7003;30602;51.060;17.226;2022-11-15T08:11:45;81;62;37
44871;PMS7003;30602;51.060;17.226;2022-11-15T08:15:50;77;58;36
44871;PMS7003;30602;51.060;17.226;2022-11-15T08:19:01;80;59;37
44871;PMS7003;30602;51.060;17.226;2022-11-15T08:23:02;89;65;39
44871;PMS7003;30602;51.060;17.226;2022-11-15T08:26:12;77;60;38
44871;PMS7003;30602;51.060;17.226;2022-11-15T08:29:56;84;64;39
44871;PMS7003;30602;51.060;17.226;2022-11-15T08:33:33;75;58;33
44871;PMS7003;30602;51.060;17.226;2022-11-15T08:36:51;82;63;39
44871;PMS7003;30602;51.060;17.226;2022-11-15T08:40:48;82;63;39
44871;PMS7003;30602;51.060;17.226;2022-11-15T08:45:04;87;65;39
44871;PMS7003;30602;51.060;17.226;2022-11-15T08:48:42;75;60;38
44871;PMS7003;30602;51.060;17.226;2022-11-15T08:52:16;71;56;37
44871;PMS7003;30602;51.060;17.226;2022-11-15T08:55:53;84;64;38
44871;PMS7003;30602;51.060;17.226;2022-11-15T08:59:35;86;66;39
44871;PMS7003;30602;51.060;17.226;2022-11-15T09:04:11;88;66;40
44871;PMS7003;30602;51.060;17.226;2022-11-15T09:07:44;84;66;39
44871;PMS7003;30602;51.060;17.226;2022-11-15T09:11:20;85;65;40
44871;PMS7003;30602;51.060;17.226;2022-11-15T09:14:34;82;63;41
44871;PMS7003;30602;51.060;17.226;2022-11-15T09:18:11;87;65;40
44871;PMS7003;30602;51.060;17.226;2022-11-15T09:21:35;88;66;40
44871;PMS7003;30602;51.060;17.226;2022-11-15T09:25:40;88;67;42
44871;PMS7003;30602;51.060;17.226;2022-11-15T09:29:15;83;64;39
44871;PMS7003;30602;51.060;17.226;2022-11-15T09:33:07;79;63;40
44871;PMS7003;30602;51.060;17.226;2022-11-15T09:36:39;85;65;40
44871;PMS7003;30602;51.060;17.226;2022-11-15T09:40:06;80;64;40
44871;PMS7003;30602;51.060;17.226;2022-11-15T09:51:48;86;65;40
44871;PMS7003;30602;51.060;17.226;2022-11-15T09:55:58;92;70;42
44871;PMS7003;30602;51.060;17.226;2022-11-15T10:03:12;96;73;47
44871;PMS7003;30602;51.060;17.226;2022-11-15T10:07:31;80;61;38
44871;PMS7003;30602;51.060;17.226;2022-11-15T10:10:48;68;53;35
44871;PMS7003;30602;51.060;17.226;2022-11-15T10:15:04;94;73;46
44871;PMS7003;30602;51.060;17.226;2022-11-15T10:18:18;87;65;40
44871;PMS7003;30602;51.060;17.226;2022-11-15T10:25:37;74;55;34
44871;PMS7003;30602;51.060;17.226;2022-11-15T10:28:49;74;59;35
44871;PMS7003;30602;51.060;17.226;2022-11-15T10:32:17;76;57;36
44871;PMS7003;30602;51.060;17.226;2022-11-15T10:35:34;71;56;35
44871;PMS7003;30602;51.060;17.226;2022-11-15T10:39:42;73;56;35
44871;PMS7003;30602;51.060;17.226;2022-11-15T10:43:24;70;56;34
44871;PMS7003;30602;51.060;17.226;2022-11-15T10:50:39;58;48;31
44871;PMS7003;30602;51.060;17.226;2022-11-15T10:55:01;65;52;33
44871;PMS7003;30602;51.060;17.226;2022-11-15T10:58:51;62;50;31
44871;PMS7003;30602;51.060;17.226;2022-11-15T11:06:18;62;47;28
44871;PMS7003;30602;51.060;17.226;2022-11-15T11:09:39;57;47;31
44871;PMS7003;30602;51.060;17.226;2022-11-15T11:20:57;58;45;28
44871;PMS7003;30602;51.060;17.226;2022-11-15T11:31:46;32;30;16
44871;PMS7003;30602;51.060;17.226;2022-11-15T11:39:45;47;39;26
44871;PMS7003;30602;51.060;17.226;2022-11-15T11:52:26;42;35;24
44871;PMS7003;30602;51.060;17.226;2022-11-15T12:00:31;49;43;30
44871;PMS7003;30602;51.060;17.226;2022-11-15T12:07:28;34;33;23
44871;PMS7003;30602;51.060;17.226;2022-11-15T12:10:50;48;40;27
44871;PMS7003;30602;51.060;17.226;2022-11-15T12:17:29;42;37;25
44871;PMS7003;30602;51.060;17.226;2022-11-15T12:29:14;38;35;21
44871;PMS7003;30602;51.060;17.226;2022-11-15T12:32:37;46;38;23
44871;PMS7003;30602;51.060;17.226;2022-11-15T12:36:56;36;32;22
44871;PMS7003;30602;51.060;17.226;2022-11-15T12:40:27;34;32;23
44871;PMS7003;30602;51.060;17.226;2022-11-15T13:00:00;48;38;24
44871;PMS7003;30602;51.060;17.226;2022-11-15T13:03:35;49;38;27
44871;PMS7003;30602;51.060;17.226;2022-11-15T13:10:44;44;37;25
44871;PMS7003;30602;51.060;17.226;2022-11-15T13:13:57;44;37;26
44871;PMS7003;30602;51.060;17.226;2022-11-15T13:21:35;52;42;26
44871;PMS7003;30602;51.060;17.226;2022-11-15T13:29:15;47;39;26
44871;PMS7003;30602;51.060;17.226;2022-11-15T13:33:47;48;39;26
44871;PMS7003;30602;51.060;17.226;2022-11-15T13:40:42;41;38;25
44871;PMS7003;30602;51.060;17.226;2022-11-15T13:44:28;36;32;25
44871;PMS7003;30602;51.060;17.226;2022-11-15T13:47:50;44;36;24
44871;PMS7003;30602;51.060;17.226;2022-11-15T13:51:44;43;36;22
44871;PMS7003;30602;51.060;17.226;2022-11-15T13:58:51;36;32;22
44871;PMS7003;30602;51.060;17.226;2022-11-15T14:07:04;34;30;19
44871;PMS7003;30602;51.060;17.226;2022-11-15T14:13:37;31;28;19
44871;PMS7003;30602;51.060;17.226;2022-11-15T14:17:19;35;32;20
44871;PMS7003;30602;51.060;17.226;2022-11-15T14:21:04;43;37;23
44871;PMS7003;30602;51.060;17.226;2022-11-15T14:24:23;36;32;20
44871;PMS7003;30602;51.060;17.226;2022-11-15T14:28:32;43;35;23
44871;PMS7003;30602;51.060;17.226;2022-11-15T14:33:00;36;33;23
44871;PMS7003;30602;51.060;17.226;2022-11-15T14:36:51;42;36;24
44871;PMS7003;30602;51.060;17.226;2022-11-15T14:40:27;37;31;21
44871;PMS7003;30602;51.060;17.226;2022-11-15T14:44:22;40;34;22
44871;PMS7003;30602;51.060;17.226;2022-11-15T14:48:02;39;33;20
44871;PMS7003;30602;51.060;17.226;2022-11-15T14:51:30;40;36;21
44871;PMS7003;30602;51.060;17.226;2022-11-15T14:59:27;46;39;26
44871;PMS7003;30602;51.060;17.226;2022-11-15T15:02:45;48;42;26
44871;PMS7003;30602;51.060;17.226;2022-11-15T15:06:24;48;40;25
44871;PMS7003;30602;51.060;17.226;2022-11-15T15:09:57;42;38;25
44871;PMS7003;30602;51.060;17.226;2022-11-15T15:13:16;52;45;29
44871;PMS7003;30602;51.060;17.226;2022-11-15T15:17:29;59;45;28
44871;PMS7003;30602;51.060;17.226;2022-11-15T15:20:59;55;44;30
44871;PMS7003;30602;51.060;17.226;2022-11-15T15:24:56;62;49;30
44871;PMS7003;30602;51.060;17.226;2022-11-15T15:28:12;57;45;29
44871;PMS7003;30602;51.060;17.226;2022-11-15T15:31:50;60;49;31
44871;PMS7003;30602;51.060;17.226;2022-11-15T15:35:11;62;50;32
44871;PMS7003;30602;51.060;17.226;2022-11-15T15:39:38;65;50;30
44871;PMS7003;30602;51.060;17.226;2022-11-15T15:42:54;62;50;32
44871;PMS7003;30602;51.060;17.226;2022-11-15T15:46:25;61;51;32
44871;PMS7003;30602;51.060;17.226;2022-11-15T15:50:02;67;53;33
44871;PMS7003;30602;51.060;17.226;2022-11-15T15:54:05;75;57;35
44871;PMS7003;30602;51.060;17.226;2022-11-15T15:57:52;68;56;35
44871;PMS7003;30602;51.060;17.226;2022-11-15T16:01:59;64;48;30
44871;PMS7003;30602;51.060;17.226;2022-11-15T16:05:32;71;55;35
44871;PMS7003;30602;51.060;17.226;2022-11-15T16:09:40;77;58;36
44871;PMS7003;30602;51.060;17.226;2022-11-15T16:13:36;77;59;38
44871;PMS7003;30602;51.060;17.226;2022-11-15T16:16:52;65;53;34
44871;PMS7003;30602;51.060;17.226;2022-11-15T16:24:21;64;50;31
44871;PMS7003;30602;51.060;17.226;2022-11-15T16:27:43;55;47;30
44871;PMS7003;30602;51.060;17.226;2022-11-15T16:32:05;49;41;28
44871;PMS7003;30602;51.060;17.226;2022-11-15T16:35:39;47;42;28
44871;PMS7003;30602;51.060;17.226;2022-11-15T16:38:53;56;49;29
44871;PMS7003;30602;51.060;17.226;2022-11-15T16:42:59;55;47;29
44871;PMS7003;30602;51.060;17.226;2022-11-15T16:46:37;67;53;33
44871;PMS7003;30602;51.060;17.226;2022-11-15T16:50:54;66;52;32
44871;PMS7003;30602;51.060;17.226;2022-11-15T16:54:42;65;50;32
44871;PMS7003;30602;51.060;17.226;2022-11-15T16:58:02;69;55;34
44871;PMS7003;30602;51.060;17.226;2022-11-15T17:01:23;72;57;35
44871;PMS7003;30602;51.060;17.226;2022-11-15T17:04:57;71;57;35
44871;PMS7003;30602;51.060;17.226;2022-11-15T17:08:10;71;55;35
44871;PMS7003;30602;51.060;17.226;2022-11-15T17:11:21;66;54;35
44871;PMS7003;30602;51.060;17.226;2022-11-15T17:14:46;67;54;34
44871;PMS7003;30602;51.060;17.226;2022-11-15T17:18:13;62;50;33
44871;PMS7003;30602;51.060;17.226;2022-11-15T17:21:31;71;54;33
44871;PMS7003;30602;51.060;17.226;2022-11-15T17:24:42;57;49;31
44871;PMS7003;30602;51.060;17.226;2022-11-15T17:27:55;63;51;33
44871;PMS7003;30602;51.060;17.226;2022-11-15T17:32:08;60;49;32
44871;PMS7003;30602;51.060;17.226;2022-11-15T17:35:19;59;48;31
44871;PMS7003;30602;51.060;17.226;2022-11-15T17:39:04;67;54;34
44871;PMS7003;30602;51.060;17.226;2022-11-15T17:42:34;59;48;32
44871;PMS7003;30602;51.060;17.226;2022-11-15T17:45:48;62;50;34
44871;PMS7003;30602;51.060;17.226;2022-11-15T17:49:27;75;58;35
44871;PMS7003;30602;51.060;17.226;2022-11-15T17:53:43;60;47;31
44871;PMS7003;30602;51.060;17.226;2022-11-15T17:57:03;51;44;29
44871;PMS7003;30602;51.060;17.226;2022-11-15T18:00:17;65;51;31
44871;PMS7003;30602;51.060;17.226;2022-11-15T18:04:22;60;48;31
44871;PMS7003;30602;51.060;17.226;2022-11-15T18:12:11;62;51;33
44871;PMS7003;30602;51.060;17.226;2022-11-15T18:15:30;62;51;32
44871;PMS7003;30602;51.060;17.226;2022-11-15T18:19:03;62;48;32
44871;PMS7003;30602;51.060;17.226;2022-11-15T18:23:15;56;40;26
44871;PMS7003;30602;51.060;17.226;2022-11-15T18:26:56;67;54;32
44871;PMS7003;30602;51.060;17.226;2022-11-15T18:30:40;87;67;40
44871;PMS7003;30602;51.060;17.226;2022-11-15T18:34:35;84;64;39
44871;PMS7003;30602;51.060;17.226;2022-11-15T18:38:05;85;65;40
44871;PMS7003;30602;51.060;17.226;2022-11-15T18:41:43;86;65;40
44871;PMS7003;30602;51.060;17.226;2022-11-15T18:45:01;89;67;41
44871;PMS7003;30602;51.060;17.226;2022-11-15T18:48:29;95;72;46
44871;PMS7003;30602;51.060;17.226;2022-11-15T18:52:31;96;75;46
44871;PMS7003;30602;51.060;17.226;2022-11-15T18:55:51;96;70;44
44871;PMS7003;30602;51.060;17.226;2022-11-15T18:59:36;95;72;45
44871;PMS7003;30602;51.060;17.226;2022-11-15T19:02:45;95;73;46
44871;PMS7003;30602;51.060;17.226;2022-11-15T19:07:04;100;79;48
44871;PMS7003;30602;51.060;17.226;2022-11-15T19:10:20;97;76;46
44871;PMS7003;30602;51.060;17.226;2022-11-15T19:13:58;94;75;45
44871;PMS7003;30602;51.060;17.226;2022-11-15T19:17:38;97;73;46
44871;PMS7003;30602;51.060;17.226;2022-11-15T19:21:07;102;81;48
44871;PMS7003;30602;51.060;17.226;2022-11-15T19:24:49;103;85;50
44871;PMS7003;30602;51.060;17.226;2022-11-15T19:28:02;109;91;55
44871;PMS7003;30602;51.060;17.226;2022-11-15T19:31:52;164;138;75
44871;PMS7003;30602;51.060;17.226;2022-11-15T19:36:13;160;133;72
44871;PMS7003;30602;51.060;17.226;2022-11-15T19:39:28;165;139;80
44871;PMS7003;30602;51.060;17.226;2022-11-15T19:43:36;160;134;77
44871;PMS7003;30602;51.060;17.226;2022-11-15T19:47:14;194;163;89
44871;PMS7003;30602;51.060;17.226;2022-11-15T19:50:27;185;147;85
44871;PMS7003;30602;51.060;17.226;2022-11-15T19:54:15;179;152;88
44871;PMS7003;30602;51.060;17.226;2022-11-15T19:57:44;172;140;79
44871;PMS7003;30602;51.060;17.226;2022-11-15T20:01:26;160;135;76
44871;PMS7003;30602;51.060;17.226;2022-11-15T20:08:47;170;148;84
44871;PMS7003;30602;51.060;17.226;2022-11-15T20:12:02;172;145;82
44871;PMS7003;30602;51.060;17.226;2022-11-15T20:15:21;162;137;79
44871;PMS7003;30602;51.060;17.226;2022-11-15T20:22:27;165;141;78
44871;PMS7003;30602;51.060;17.226;2022-11-15T20:25:41;162;133;76
44871;PMS7003;30602;51.060;17.226;2022-11-15T20:29:03;150;125;68
44871;PMS7003;30602;51.060;17.226;2022-11-15T20:33:42;151;126;75
44871;PMS7003;30602;51.060;17.226;2022-11-15T20:37:14;142;123;70
44871;PMS7003;30602;51.060;17.226;2022-11-15T20:40:33;134;113;65
44871;PMS7003;30602;51.060;17.226;2022-11-15T20:44:37;140;117;68
44871;PMS7003;30602;51.060;17.226;2022-11-15T20:48:45;157;122;70
44871;PMS7003;30602;51.060;17.226;2022-11-15T20:51:58;188;158;87
44871;PMS7003;30602;51.060;17.226;2022-11-15T20:55:11;215;171;96
44871;PMS7003;30602;51.060;17.226;2022-11-15T20:58:58;234;192;105
44871;PMS7003;30602;51.060;17.226;2022-11-15T21:02:49;192;170;102
44871;PMS7003;30602;51.060;17.226;2022-11-15T21:06:22;196;167;96
44871;PMS7003;30602;51.060;17.226;2022-11-15T21:10:31;234;195;105
44871;PMS7003;30602;51.060;17.226;2022-11-15T21:14:54;188;157;87
44871;PMS7003;30602;51.060;17.226;2022-11-15T21:18:09;253;190;99
44871;PMS7003;30602;51.060;17.226;2022-11-15T21:22:59;221;182;97
44871;PMS7003;30602;51.060;17.226;2022-11-15T21:26:27;172;150;79
44871;PMS7003;30602;51.060;17.226;2022-11-15T21:30:06;152;129;70
44871;PMS7003;30602;51.060;17.226;2022-11-15T21:33:51;148;123;72
44871;PMS7003;30602;51.060;17.226;2022-11-15T21:37:38;128;108;61
44871;PMS7003;30602;51.060;17.226;2022-11-15T21:41:14;132;110;63
44871;PMS7003;30602;51.060;17.226;2022-11-15T21:45:14;138;113;63
44871;PMS7003;30602;51.060;17.226;2022-11-15T21:48:31;120;102;56
44871;PMS7003;30602;51.060;17.226;2022-11-15T21:52:48;138;116;66
44871;PMS7003;30602;51.060;17.226;2022-11-15T21:56:20;117;107;59
44871;PMS7003;30602;51.060;17.226;2022-11-15T22:00:37;132;108;63
44871;PMS7003;30602;51.060;17.226;2022-11-15T22:04:06;116;98;56
44871;PMS7003;30602;51.060;17.226;2022-11-15T22:07:36;136;111;64
44871;PMS7003;30602;51.060;17.226;2022-11-15T22:11:04;135;114;62
44871;PMS7003;30602;51.060;17.226;2022-11-15T22:14:21;140;116;65
44871;PMS7003;30602;51.060;17.226;2022-11-15T22:18:17;139;119;67
44871;PMS7003;30602;51.060;17.226;2022-11-15T22:21:54;123;102;60
44871;PMS7003;30602;51.060;17.226;2022-11-15T22:25:37;148;122;68
44871;PMS7003;30602;51.060;17.226;2022-11-15T22:29:11;105;90;59
44871;PMS7003;30602;51.060;17.226;2022-11-15T22:32:39;123;105;60
44871;PMS7003;30602;51.060;17.226;2022-11-15T22:35:50;125;108;63
44871;PMS7003;30602;51.060;17.226;2022-11-15T22:39:31;138;114;64
44871;PMS7003;30602;51.060;17.226;2022-11-15T22:43:01;132;114;65
44871;PMS7003;30602;51.060;17.226;2022-11-15T22:46:40;121;102;62
44871;PMS7003;30602;51.060;17.226;2022-11-15T22:50:16;124;107;60
44871;PMS7003;30602;51.060;17.226;2022-11-15T22:54:13;135;109;65
44871;PMS7003;30602;51.060;17.226;2022-11-15T22:58:30;128;111;64
44871;PMS7003;30602;51.060;17.226;2022-11-15T23:02:24;116;103;58
44871;PMS7003;30602;51.060;17.226;2022-11-15T23:06:00;132;104;60
44871;PMS7003;30602;51.060;17.226;2022-11-15T23:09:11;123;105;61
44871;PMS7003;30602;51.060;17.226;2022-11-15T23:13:26;134;114;64
44871;PMS7003;30602;51.060;17.226;2022-11-15T23:17:02;132;109;63
44871;PMS7003;30602;51.060;17.226;2022-11-15T23:20:24;133;107;63
44871;PMS7003;30602;51.060;17.226;2022-11-15T23:24:34;150;126;74
44871;PMS7003;30602;51.060;17.226;2022-11-15T23:27:48;171;147;84
44871;PMS7003;30602;51.060;17.226;2022-11-15T23:31:07;138;115;67
44871;PMS7003;30602;51.060;17.226;2022-11-15T23:34:39;135;112;64
44871;PMS7003;30602;51.060;17.226;2022-11-15T23:38:02;145;127;75
44871;PMS7003;30602;51.060;17.226;2022-11-15T23:41:58;126;106;63
44871;PMS7003;30602;51.060;17.226;2022-11-15T23:46:03;133;116;66
44871;PMS7003;30602;51.060;17.226;2022-11-15T23:49:25;120;107;60
44871;PMS7003;30602;51.060;17.226;2022-11-15T23:52:59;121;101;61
44871;PMS7003;30602;51.060;17.226;2022-11-15T23:57:02;122;106;61
